Austin, Pennsylvania
Current Conditions -  °F | °C
As of 1:53 AM on Saturday 01 Nov 2014 (Local Time) from KBFD Reporting Station
Overcast Overcast  
Wind Chill: 37°   Ceiling: 500
Heat Index: 37°   Visibility: 10mi
Dew Point: 34°   Wind: 3mph
Humidity: 89%   Direction: 50°NE
Pressure: 29.9"   Gusts: NA
Location:  41.63°N, 78.09°W
Report Text: KBFD 010553Z AUTO 05003KT 10SM OVC005 03/01 A2990 RMK AO2 SLP135 60003 T00280011 10028 20022 55001
Loading
Personal Weather Stations






























Interactive Weather Map
Tropical Storm Tracking
New forecast layout! Learn more

10-Day Weather Forecast

Advertisements
Track Severe Weather on mobile